sensor_id;sensor_type;location;lat;lon;timestamp;P1;durP1;ratioP1;P2;durP2;ratioP2
17796;SDS011;55596;53.554;9.916;2023-10-31T00:00:28;26.23;;;14.87;;
17796;SDS011;55596;53.554;9.916;2023-10-31T00:02:55;21.80;;;15.17;;
17796;SDS011;55596;53.554;9.916;2023-10-31T00:05:22;23.77;;;14.30;;
17796;SDS011;55596;53.554;9.916;2023-10-31T00:07:51;23.00;;;15.03;;
17796;SDS011;55596;53.554;9.916;2023-10-31T00:10:18;21.90;;;14.43;;
17796;SDS011;55596;53.554;9.916;2023-10-31T00:12:45;20.00;;;14.03;;
17796;SDS011;55596;53.554;9.916;2023-10-31T00:15:13;20.83;;;13.63;;
17796;SDS011;55596;53.554;9.916;2023-10-31T00:17:44;18.83;;;13.53;;
17796;SDS011;55596;53.554;9.916;2023-10-31T00:20:11;26.97;;;13.63;;
17796;SDS011;55596;53.554;9.916;2023-10-31T00:22:48;17.73;;;12.53;;
17796;SDS011;55596;53.554;9.916;2023-10-31T00:25:23;22.10;;;13.73;;
17796;SDS011;55596;53.554;9.916;2023-10-31T00:27:52;16.40;;;12.43;;
17796;SDS011;55596;53.554;9.916;2023-10-31T00:30:25;17.77;;;12.47;;
17796;SDS011;55596;53.554;9.916;2023-10-31T00:32:52;23.17;;;13.97;;
17796;SDS011;55596;53.554;9.916;2023-10-31T00:35:19;19.83;;;14.30;;
17796;SDS011;55596;53.554;9.916;2023-10-31T00:37:46;18.57;;;15.10;;
17796;SDS011;55596;53.554;9.916;2023-10-31T00:40:13;20.63;;;15.60;;
17796;SDS011;55596;53.554;9.916;2023-10-31T00:42:43;21.63;;;16.07;;
17796;SDS011;55596;53.554;9.916;2023-10-31T00:45:10;21.47;;;16.10;;
17796;SDS011;55596;53.554;9.916;2023-10-31T00:47:37;19.07;;;15.57;;
17796;SDS011;55596;53.554;9.916;2023-10-31T00:50:05;24.30;;;15.57;;
17796;SDS011;55596;53.554;9.916;2023-10-31T00:52:32;22.37;;;15.97;;
17796;SDS011;55596;53.554;9.916;2023-10-31T00:55:00;26.43;;;16.10;;
17796;SDS011;55596;53.554;9.916;2023-10-31T00:57:29;24.60;;;15.83;;
17796;SDS011;55596;53.554;9.916;2023-10-31T00:59:58;19.33;;;15.63;;
17796;SDS011;55596;53.554;9.916;2023-10-31T01:02:25;20.40;;;15.83;;
17796;SDS011;55596;53.554;9.916;2023-10-31T01:04:52;19.30;;;16.30;;
17796;SDS011;55596;53.554;9.916;2023-10-31T01:07:19;20.77;;;15.90;;
17796;SDS011;55596;53.554;9.916;2023-10-31T01:09:46;23.80;;;16.70;;
17796;SDS011;55596;53.554;9.916;2023-10-31T01:12:13;23.27;;;16.43;;
17796;SDS011;55596;53.554;9.916;2023-10-31T01:14:40;22.53;;;16.13;;
17796;SDS011;55596;53.554;9.916;2023-10-31T01:17:09;20.77;;;17.23;;
17796;SDS011;55596;53.554;9.916;2023-10-31T01:19:36;21.57;;;15.83;;
17796;SDS011;55596;53.554;9.916;2023-10-31T01:22:03;25.00;;;15.87;;
17796;SDS011;55596;53.554;9.916;2023-10-31T01:24:32;24.27;;;15.93;;
17796;SDS011;55596;53.554;9.916;2023-10-31T01:26:59;24.83;;;15.83;;
17796;SDS011;55596;53.554;9.916;2023-10-31T01:29:26;24.13;;;15.53;;
17796;SDS011;55596;53.554;9.916;2023-10-31T01:31:54;26.57;;;16.30;;
17796;SDS011;55596;53.554;9.916;2023-10-31T01:34:22;20.57;;;14.83;;
17796;SDS011;55596;53.554;9.916;2023-10-31T01:36:50;25.50;;;15.97;;
17796;SDS011;55596;53.554;9.916;2023-10-31T01:39:18;19.23;;;14.17;;
17796;SDS011;55596;53.554;9.916;2023-10-31T01:41:45;21.63;;;14.77;;
17796;SDS011;55596;53.554;9.916;2023-10-31T01:44:13;29.83;;;14.70;;
17796;SDS011;55596;53.554;9.916;2023-10-31T01:46:40;25.73;;;14.80;;
17796;SDS011;55596;53.554;9.916;2023-10-31T01:49:08;20.93;;;13.70;;
17796;SDS011;55596;53.554;9.916;2023-10-31T01:51:36;21.50;;;13.83;;
17796;SDS011;55596;53.554;9.916;2023-10-31T01:54:03;22.23;;;13.03;;
17796;SDS011;55596;53.554;9.916;2023-10-31T01:56:31;18.10;;;12.93;;
17796;SDS011;55596;53.554;9.916;2023-10-31T01:58:58;18.67;;;12.47;;
17796;SDS011;55596;53.554;9.916;2023-10-31T02:01:25;21.20;;;13.20;;
17796;SDS011;55596;53.554;9.916;2023-10-31T02:03:53;27.20;;;13.70;;
17796;SDS011;55596;53.554;9.916;2023-10-31T02:06:20;18.93;;;13.60;;
17796;SDS011;55596;53.554;9.916;2023-10-31T02:08:48;18.87;;;12.90;;
17796;SDS011;55596;53.554;9.916;2023-10-31T02:11:16;19.17;;;12.63;;
17796;SDS011;55596;53.554;9.916;2023-10-31T02:13:43;23.90;;;12.67;;
17796;SDS011;55596;53.554;9.916;2023-10-31T02:16:10;16.80;;;12.57;;
17796;SDS011;55596;53.554;9.916;2023-10-31T02:18:37;22.37;;;11.80;;
17796;SDS011;55596;53.554;9.916;2023-10-31T02:21:04;17.60;;;11.53;;
17796;SDS011;55596;53.554;9.916;2023-10-31T02:23:33;22.70;;;13.17;;
17796;SDS011;55596;53.554;9.916;2023-10-31T02:26:00;20.80;;;12.63;;
17796;SDS011;55596;53.554;9.916;2023-10-31T02:28:28;24.07;;;12.57;;
17796;SDS011;55596;53.554;9.916;2023-10-31T02:30:56;21.33;;;12.60;;
17796;SDS011;55596;53.554;9.916;2023-10-31T02:33:24;23.57;;;12.50;;
17796;SDS011;55596;53.554;9.916;2023-10-31T02:35:51;17.07;;;11.30;;
17796;SDS011;55596;53.554;9.916;2023-10-31T02:38:18;21.87;;;11.80;;
17796;SDS011;55596;53.554;9.916;2023-10-31T02:40:47;18.17;;;11.57;;
17796;SDS011;55596;53.554;9.916;2023-10-31T02:43:14;23.40;;;12.90;;
17796;SDS011;55596;53.554;9.916;2023-10-31T02:45:41;21.13;;;12.27;;
17796;SDS011;55596;53.554;9.916;2023-10-31T02:48:08;20.87;;;11.30;;
17796;SDS011;55596;53.554;9.916;2023-10-31T02:50:35;19.33;;;11.07;;
17796;SDS011;55596;53.554;9.916;2023-10-31T02:53:03;24.60;;;11.80;;
17796;SDS011;55596;53.554;9.916;2023-10-31T02:55:30;19.63;;;11.17;;
17796;SDS011;55596;53.554;9.916;2023-10-31T02:57:58;24.77;;;12.30;;
17796;SDS011;55596;53.554;9.916;2023-10-31T03:00:25;26.30;;;12.50;;
17796;SDS011;55596;53.554;9.916;2023-10-31T03:02:52;17.77;;;11.40;;
17796;SDS011;55596;53.554;9.916;2023-10-31T03:05:20;21.93;;;11.93;;
17796;SDS011;55596;53.554;9.916;2023-10-31T03:07:47;19.43;;;11.57;;
17796;SDS011;55596;53.554;9.916;2023-10-31T03:10:14;22.93;;;12.47;;
17796;SDS011;55596;53.554;9.916;2023-10-31T03:12:41;22.93;;;11.77;;
17796;SDS011;55596;53.554;9.916;2023-10-31T03:15:10;21.90;;;12.17;;
17796;SDS011;55596;53.554;9.916;2023-10-31T03:17:37;19.67;;;12.07;;
17796;SDS011;55596;53.554;9.916;2023-10-31T03:20:05;18.00;;;11.30;;
17796;SDS011;55596;53.554;9.916;2023-10-31T03:22:32;21.07;;;11.40;;
17796;SDS011;55596;53.554;9.916;2023-10-31T03:24:59;24.07;;;12.40;;
17796;SDS011;55596;53.554;9.916;2023-10-31T03:27:26;15.37;;;11.83;;
17796;SDS011;55596;53.554;9.916;2023-10-31T03:29:53;20.87;;;12.37;;
17796;SDS011;55596;53.554;9.916;2023-10-31T03:32:22;22.27;;;12.77;;
17796;SDS011;55596;53.554;9.916;2023-10-31T03:34:49;25.30;;;12.23;;
17796;SDS011;55596;53.554;9.916;2023-10-31T03:37:16;25.00;;;12.70;;
17796;SDS011;55596;53.554;9.916;2023-10-31T03:39:43;16.97;;;11.13;;
17796;SDS011;55596;53.554;9.916;2023-10-31T03:42:11;19.83;;;11.73;;
17796;SDS011;55596;53.554;9.916;2023-10-31T03:44:38;23.90;;;12.50;;
17796;SDS011;55596;53.554;9.916;2023-10-31T03:47:05;21.40;;;11.80;;
17796;SDS011;55596;53.554;9.916;2023-10-31T03:49:33;18.53;;;11.93;;
17796;SDS011;55596;53.554;9.916;2023-10-31T03:52:04;22.27;;;13.40;;
17796;SDS011;55596;53.554;9.916;2023-10-31T03:54:32;21.47;;;12.63;;
17796;SDS011;55596;53.554;9.916;2023-10-31T03:56:59;21.47;;;12.17;;
17796;SDS011;55596;53.554;9.916;2023-10-31T03:59:26;21.43;;;12.17;;
17796;SDS011;55596;53.554;9.916;2023-10-31T04:01:53;18.70;;;11.77;;
17796;SDS011;55596;53.554;9.916;2023-10-31T04:04:20;20.87;;;12.77;;
17796;SDS011;55596;53.554;9.916;2023-10-31T04:06:49;21.37;;;12.03;;
17796;SDS011;55596;53.554;9.916;2023-10-31T04:09:16;20.80;;;12.73;;
17796;SDS011;55596;53.554;9.916;2023-10-31T04:11:43;21.20;;;13.30;;
17796;SDS011;55596;53.554;9.916;2023-10-31T04:14:10;24.77;;;13.43;;
17796;SDS011;55596;53.554;9.916;2023-10-31T04:16:38;20.53;;;13.93;;
17796;SDS011;55596;53.554;9.916;2023-10-31T04:19:10;23.47;;;13.97;;
17796;SDS011;55596;53.554;9.916;2023-10-31T04:21:37;18.73;;;13.57;;
17796;SDS011;55596;53.554;9.916;2023-10-31T04:24:06;25.00;;;14.80;;
17796;SDS011;55596;53.554;9.916;2023-10-31T04:26:33;26.67;;;14.60;;
17796;SDS011;55596;53.554;9.916;2023-10-31T04:29:00;25.00;;;15.93;;
17796;SDS011;55596;53.554;9.916;2023-10-31T04:31:28;26.43;;;15.67;;
17796;SDS011;55596;53.554;9.916;2023-10-31T04:33:55;24.70;;;16.60;;
17796;SDS011;55596;53.554;9.916;2023-10-31T04:36:22;29.23;;;17.30;;
17796;SDS011;55596;53.554;9.916;2023-10-31T04:38:49;26.80;;;17.23;;
17796;SDS011;55596;53.554;9.916;2023-10-31T04:41:18;29.50;;;17.33;;
17796;SDS011;55596;53.554;9.916;2023-10-31T04:43:45;22.47;;;16.67;;
17796;SDS011;55596;53.554;9.916;2023-10-31T04:46:13;25.43;;;17.37;;
17796;SDS011;55596;53.554;9.916;2023-10-31T04:48:41;23.17;;;16.90;;
17796;SDS011;55596;53.554;9.916;2023-10-31T04:51:08;29.60;;;18.07;;
17796;SDS011;55596;53.554;9.916;2023-10-31T04:53:35;29.37;;;17.93;;
17796;SDS011;55596;53.554;9.916;2023-10-31T04:56:03;28.00;;;18.40;;
17796;SDS011;55596;53.554;9.916;2023-10-31T04:58:32;26.17;;;17.20;;
17796;SDS011;55596;53.554;9.916;2023-10-31T05:01:00;26.67;;;18.10;;
17796;SDS011;55596;53.554;9.916;2023-10-31T05:03:28;25.77;;;17.47;;
17796;SDS011;55596;53.554;9.916;2023-10-31T05:05:55;33.93;;;18.00;;
17796;SDS011;55596;53.554;9.916;2023-10-31T05:08:22;28.13;;;18.17;;
17796;SDS011;55596;53.554;9.916;2023-10-31T05:10:49;30.97;;;18.40;;
17796;SDS011;55596;53.554;9.916;2023-10-31T05:13:17;36.00;;;19.80;;
17796;SDS011;55596;53.554;9.916;2023-10-31T05:15:45;29.53;;;18.23;;
17796;SDS011;55596;53.554;9.916;2023-10-31T05:18:12;31.67;;;18.83;;
17796;SDS011;55596;53.554;9.916;2023-10-31T05:20:40;29.83;;;19.10;;
17796;SDS011;55596;53.554;9.916;2023-10-31T05:23:07;37.10;;;20.43;;
17796;SDS011;55596;53.554;9.916;2023-10-31T05:25:34;33.47;;;20.17;;
17796;SDS011;55596;53.554;9.916;2023-10-31T05:28:01;34.40;;;20.20;;
17796;SDS011;55596;53.554;9.916;2023-10-31T05:30:28;35.93;;;20.33;;
17796;SDS011;55596;53.554;9.916;2023-10-31T05:32:57;39.10;;;20.93;;
17796;SDS011;55596;53.554;9.916;2023-10-31T05:35:24;35.90;;;20.67;;
17796;SDS011;55596;53.554;9.916;2023-10-31T05:37:51;40.13;;;21.53;;
17796;SDS011;55596;53.554;9.916;2023-10-31T05:40:18;40.63;;;22.20;;
17796;SDS011;55596;53.554;9.916;2023-10-31T05:42:47;38.30;;;21.97;;
17796;SDS011;55596;53.554;9.916;2023-10-31T05:45:14;42.37;;;22.87;;
17796;SDS011;55596;53.554;9.916;2023-10-31T05:47:41;53.67;;;23.33;;
17796;SDS011;55596;53.554;9.916;2023-10-31T05:50:10;40.73;;;21.80;;
17796;SDS011;55596;53.554;9.916;2023-10-31T05:52:37;45.37;;;22.90;;
17796;SDS011;55596;53.554;9.916;2023-10-31T05:55:05;45.50;;;22.63;;
17796;SDS011;55596;53.554;9.916;2023-10-31T05:57:32;44.17;;;23.13;;
17796;SDS011;55596;53.554;9.916;2023-10-31T05:59:59;42.83;;;23.50;;
17796;SDS011;55596;53.554;9.916;2023-10-31T06:02:27;58.30;;;24.13;;
17796;SDS011;55596;53.554;9.916;2023-10-31T06:04:54;40.50;;;23.00;;
17796;SDS011;55596;53.554;9.916;2023-10-31T06:07:23;49.53;;;24.03;;
17796;SDS011;55596;53.554;9.916;2023-10-31T06:09:50;54.20;;;24.60;;
17796;SDS011;55596;53.554;9.916;2023-10-31T06:12:17;44.50;;;23.60;;
17796;SDS011;55596;53.554;9.916;2023-10-31T06:14:45;51.57;;;23.83;;
17796;SDS011;55596;53.554;9.916;2023-10-31T06:17:12;46.63;;;23.17;;
17796;SDS011;55596;53.554;9.916;2023-10-31T06:19:39;58.97;;;23.43;;
17796;SDS011;55596;53.554;9.916;2023-10-31T06:22:10;56.10;;;23.37;;
17796;SDS011;55596;53.554;9.916;2023-10-31T06:24:38;46.13;;;21.83;;
17796;SDS011;55596;53.554;9.916;2023-10-31T06:27:06;54.50;;;22.20;;
17796;SDS011;55596;53.554;9.916;2023-10-31T06:29:33;57.13;;;23.37;;
17796;SDS011;55596;53.554;9.916;2023-10-31T06:32:00;53.40;;;22.77;;
17796;SDS011;55596;53.554;9.916;2023-10-31T06:34:27;53.37;;;22.47;;
17796;SDS011;55596;53.554;9.916;2023-10-31T06:36:55;50.37;;;22.97;;
17796;SDS011;55596;53.554;9.916;2023-10-31T06:39:22;57.97;;;24.03;;
17796;SDS011;55596;53.554;9.916;2023-10-31T06:41:50;53.53;;;22.43;;
17796;SDS011;55596;53.554;9.916;2023-10-31T06:44:21;63.03;;;23.47;;
17796;SDS011;55596;53.554;9.916;2023-10-31T06:46:48;56.30;;;22.53;;
17796;SDS011;55596;53.554;9.916;2023-10-31T06:49:15;49.90;;;21.80;;
17796;SDS011;55596;53.554;9.916;2023-10-31T06:51:44;57.50;;;21.07;;
17796;SDS011;55596;53.554;9.916;2023-10-31T06:54:11;38.53;;;17.33;;
17796;SDS011;55596;53.554;9.916;2023-10-31T06:56:38;29.37;;;14.73;;
17796;SDS011;55596;53.554;9.916;2023-10-31T06:59:07;45.10;;;15.10;;
17796;SDS011;55596;53.554;9.916;2023-10-31T07:01:35;32.33;;;12.53;;
17796;SDS011;55596;53.554;9.916;2023-10-31T07:04:03;26.90;;;10.90;;
17796;SDS011;55596;53.554;9.916;2023-10-31T07:06:30;9.97;;;6.50;;
17796;SDS011;55596;53.554;9.916;2023-10-31T07:08:57;16.97;;;10.47;;
17796;SDS011;55596;53.554;9.916;2023-10-31T07:11:29;16.33;;;11.17;;
17796;SDS011;55596;53.554;9.916;2023-10-31T07:13:59;18.10;;;12.07;;
17796;SDS011;55596;53.554;9.916;2023-10-31T07:16:28;22.70;;;13.37;;
17796;SDS011;55596;53.554;9.916;2023-10-31T07:18:55;24.50;;;14.60;;
17796;SDS011;55596;53.554;9.916;2023-10-31T07:21:23;27.63;;;16.17;;
17796;SDS011;55596;53.554;9.916;2023-10-31T07:23:51;28.63;;;17.03;;
17796;SDS011;55596;53.554;9.916;2023-10-31T07:26:18;29.40;;;18.43;;
17796;SDS011;55596;53.554;9.916;2023-10-31T07:28:45;32.60;;;19.20;;
17796;SDS011;55596;53.554;9.916;2023-10-31T07:31:13;34.53;;;21.77;;
17796;SDS011;55596;53.554;9.916;2023-10-31T07:33:42;41.07;;;25.27;;
17796;SDS011;55596;53.554;9.916;2023-10-31T07:36:10;48.13;;;27.10;;
17796;SDS011;55596;53.554;9.916;2023-10-31T07:38:37;45.53;;;26.50;;
17796;SDS011;55596;53.554;9.916;2023-10-31T07:41:04;38.87;;;24.77;;
17796;SDS011;55596;53.554;9.916;2023-10-31T07:43:31;43.03;;;25.20;;
17796;SDS011;55596;53.554;9.916;2023-10-31T07:45:59;33.90;;;21.27;;
17796;SDS011;55596;53.554;9.916;2023-10-31T07:48:26;33.67;;;20.83;;
17796;SDS011;55596;53.554;9.916;2023-10-31T07:50:54;28.80;;;17.87;;
17796;SDS011;55596;53.554;9.916;2023-10-31T07:53:21;19.97;;;14.20;;
17796;SDS011;55596;53.554;9.916;2023-10-31T07:55:48;16.77;;;12.03;;
17796;SDS011;55596;53.554;9.916;2023-10-31T07:58:16;11.13;;;7.83;;
17796;SDS011;55596;53.554;9.916;2023-10-31T08:00:43;8.90;;;5.83;;
17796;SDS011;55596;53.554;9.916;2023-10-31T08:03:10;7.17;;;4.50;;
17796;SDS011;55596;53.554;9.916;2023-10-31T08:05:37;4.60;;;3.03;;
17796;SDS011;55596;53.554;9.916;2023-10-31T08:08:06;5.03;;;2.50;;
17796;SDS011;55596;53.554;9.916;2023-10-31T08:10:33;3.13;;;2.13;;
17796;SDS011;55596;53.554;9.916;2023-10-31T08:13:00;2.10;;;1.87;;
17796;SDS011;55596;53.554;9.916;2023-10-31T08:15:27;1.90;;;1.40;;
17796;SDS011;55596;53.554;9.916;2023-10-31T08:17:54;1.97;;;1.40;;
17796;SDS011;55596;53.554;9.916;2023-10-31T08:20:22;1.67;;;1.30;;
17796;SDS011;55596;53.554;9.916;2023-10-31T08:22:49;3.80;;;1.20;;
17796;SDS011;55596;53.554;9.916;2023-10-31T08:25:17;2.63;;;1.30;;
17796;SDS011;55596;53.554;9.916;2023-10-31T08:27:44;2.93;;;1.17;;
17796;SDS011;55596;53.554;9.916;2023-10-31T08:30:12;2.17;;;1.03;;
17796;SDS011;55596;53.554;9.916;2023-10-31T08:32:39;1.33;;;0.90;;
17796;SDS011;55596;53.554;9.916;2023-10-31T08:35:07;2.30;;;1.10;;
17796;SDS011;55596;53.554;9.916;2023-10-31T08:37:34;1.30;;;0.90;;
17796;SDS011;55596;53.554;9.916;2023-10-31T08:40:02;1.20;;;1.10;;
17796;SDS011;55596;53.554;9.916;2023-10-31T08:42:31;1.20;;;1.10;;
17796;SDS011;55596;53.554;9.916;2023-10-31T08:44:58;3.03;;;1.10;;
17796;SDS011;55596;53.554;9.916;2023-10-31T08:47:25;2.20;;;1.10;;
17796;SDS011;55596;53.554;9.916;2023-10-31T08:49:53;1.47;;;1.10;;
17796;SDS011;55596;53.554;9.916;2023-10-31T08:52:20;3.13;;;1.00;;
17796;SDS011;55596;53.554;9.916;2023-10-31T08:54:47;1.17;;;1.07;;
17796;SDS011;55596;53.554;9.916;2023-10-31T08:57:15;2.10;;;0.90;;
17796;SDS011;55596;53.554;9.916;2023-10-31T08:59:44;1.77;;;1.10;;
17796;SDS011;55596;53.554;9.916;2023-10-31T09:02:11;1.20;;;1.10;;
17796;SDS011;55596;53.554;9.916;2023-10-31T09:04:38;1.83;;;1.20;;
17796;SDS011;55596;53.554;9.916;2023-10-31T09:07:06;1.00;;;0.90;;
17796;SDS011;55596;53.554;9.916;2023-10-31T09:09:33;2.53;;;0.93;;
17796;SDS011;55596;53.554;9.916;2023-10-31T09:12:01;1.97;;;0.93;;
17796;SDS011;55596;53.554;9.916;2023-10-31T09:14:28;21.83;;;1.33;;
17796;SDS011;55596;53.554;9.916;2023-10-31T09:16:57;7.83;;;0.93;;
17796;SDS011;55596;53.554;9.916;2023-10-31T09:19:24;18.13;;;0.93;;
17796;SDS011;55596;53.554;9.916;2023-10-31T09:21:51;13.23;;;1.20;;
17796;SDS011;55596;53.554;9.916;2023-10-31T09:24:18;1.80;;;0.97;;
17796;SDS011;55596;53.554;9.916;2023-10-31T09:26:46;4.77;;;1.23;;
17796;SDS011;55596;53.554;9.916;2023-10-31T09:29:13;4.93;;;1.90;;
17796;SDS011;55596;53.554;9.916;2023-10-31T09:31:40;9.67;;;2.50;;
17796;SDS011;55596;53.554;9.916;2023-10-31T09:34:09;8.80;;;3.03;;
17796;SDS011;55596;53.554;9.916;2023-10-31T09:36:36;24.67;;;3.50;;
17796;SDS011;55596;53.554;9.916;2023-10-31T09:39:03;9.43;;;2.57;;
17796;SDS011;55596;53.554;9.916;2023-10-31T09:41:31;5.87;;;1.80;;
17796;SDS011;55596;53.554;9.916;2023-10-31T09:43:58;7.70;;;1.10;;
17796;SDS011;55596;53.554;9.916;2023-10-31T09:46:26;0.87;;;0.83;;
17796;SDS011;55596;53.554;9.916;2023-10-31T09:48:53;1.97;;;0.90;;
17796;SDS011;55596;53.554;9.916;2023-10-31T09:51:23;4.17;;;0.90;;
17796;SDS011;55596;53.554;9.916;2023-10-31T09:53:50;3.37;;;0.87;;
17796;SDS011;55596;53.554;9.916;2023-10-31T09:56:18;1.67;;;0.70;;
17796;SDS011;55596;53.554;9.916;2023-10-31T09:58:45;2.13;;;0.90;;
17796;SDS011;55596;53.554;9.916;2023-10-31T10:01:14;0.93;;;0.87;;
17796;SDS011;55596;53.554;9.916;2023-10-31T10:03:41;1.53;;;0.90;;
17796;SDS011;55596;53.554;9.916;2023-10-31T10:06:09;4.70;;;1.10;;
17796;SDS011;55596;53.554;9.916;2023-10-31T10:08:38;3.63;;;1.40;;
17796;SDS011;55596;53.554;9.916;2023-10-31T10:11:06;3.57;;;1.50;;
17796;SDS011;55596;53.554;9.916;2023-10-31T10:13:33;3.40;;;1.93;;
17796;SDS011;55596;53.554;9.916;2023-10-31T10:16:00;3.03;;;2.63;;
17796;SDS011;55596;53.554;9.916;2023-10-31T10:18:31;4.17;;;2.60;;
17796;SDS011;55596;53.554;9.916;2023-10-31T10:21:00;6.50;;;3.53;;
17796;SDS011;55596;53.554;9.916;2023-10-31T10:23:28;6.70;;;3.33;;
17796;SDS011;55596;53.554;9.916;2023-10-31T10:25:57;5.20;;;3.50;;
17796;SDS011;55596;53.554;9.916;2023-10-31T10:28:25;3.43;;;2.93;;
17796;SDS011;55596;53.554;9.916;2023-10-31T10:30:54;2.97;;;2.70;;
17796;SDS011;55596;53.554;9.916;2023-10-31T10:33:21;3.60;;;2.30;;
17796;SDS011;55596;53.554;9.916;2023-10-31T10:35:49;4.40;;;2.27;;
17796;SDS011;55596;53.554;9.916;2023-10-31T10:38:17;6.73;;;2.30;;
17796;SDS011;55596;53.554;9.916;2023-10-31T10:40:44;4.47;;;2.03;;
17796;SDS011;55596;53.554;9.916;2023-10-31T10:43:16;4.43;;;1.83;;
17796;SDS011;55596;53.554;9.916;2023-10-31T10:45:47;6.23;;;1.97;;
17796;SDS011;55596;53.554;9.916;2023-10-31T10:48:16;2.83;;;1.60;;
17796;SDS011;55596;53.554;9.916;2023-10-31T10:50:45;5.07;;;2.00;;
17796;SDS011;55596;53.554;9.916;2023-10-31T10:53:16;3.00;;;1.60;;
17796;SDS011;55596;53.554;9.916;2023-10-31T10:55:52;4.13;;;2.10;;
17796;SDS011;55596;53.554;9.916;2023-10-31T10:58:22;2.80;;;2.20;;
17796;SDS011;55596;53.554;9.916;2023-10-31T11:00:50;11.73;;;2.77;;
17796;SDS011;55596;53.554;9.916;2023-10-31T11:03:19;5.23;;;2.73;;
17796;SDS011;55596;53.554;9.916;2023-10-31T11:05:47;4.77;;;2.50;;
17796;SDS011;55596;53.554;9.916;2023-10-31T11:08:14;7.17;;;2.70;;
17796;SDS011;55596;53.554;9.916;2023-10-31T11:10:42;3.43;;;2.17;;
17796;SDS011;55596;53.554;9.916;2023-10-31T11:13:09;5.50;;;2.10;;
17796;SDS011;55596;53.554;9.916;2023-10-31T11:15:38;4.73;;;2.40;;
17796;SDS011;55596;53.554;9.916;2023-10-31T11:18:05;6.37;;;2.27;;
17796;SDS011;55596;53.554;9.916;2023-10-31T11:20:33;3.67;;;1.67;;
17796;SDS011;55596;53.554;9.916;2023-10-31T11:23:00;3.47;;;1.83;;
17796;SDS011;55596;53.554;9.916;2023-10-31T11:25:31;4.93;;;1.90;;
17796;SDS011;55596;53.554;9.916;2023-10-31T11:28:10;2.83;;;1.47;;
17796;SDS011;55596;53.554;9.916;2023-10-31T11:30:39;2.37;;;1.40;;
17796;SDS011;55596;53.554;9.916;2023-10-31T11:33:07;4.17;;;1.63;;
17796;SDS011;55596;53.554;9.916;2023-10-31T11:35:38;6.10;;;2.00;;
17796;SDS011;55596;53.554;9.916;2023-10-31T11:38:06;3.90;;;1.37;;
17796;SDS011;55596;53.554;9.916;2023-10-31T11:40:32;4.20;;;1.50;;
17796;SDS011;55596;53.554;9.916;2023-10-31T11:43:02;3.03;;;1.40;;
17796;SDS011;55596;53.554;9.916;2023-10-31T11:45:32;4.57;;;1.60;;
17796;SDS011;55596;53.554;9.916;2023-10-31T11:48:01;3.53;;;1.70;;
17796;SDS011;55596;53.554;9.916;2023-10-31T11:50:29;3.90;;;1.57;;
17796;SDS011;55596;53.554;9.916;2023-10-31T11:53:04;3.83;;;1.43;;
17796;SDS011;55596;53.554;9.916;2023-10-31T11:55:31;6.53;;;1.83;;
17796;SDS011;55596;53.554;9.916;2023-10-31T11:58:16;3.93;;;1.37;;
17796;SDS011;55596;53.554;9.916;2023-10-31T12:00:43;2.53;;;1.00;;
17796;SDS011;55596;53.554;9.916;2023-10-31T12:03:21;3.07;;;0.77;;
17796;SDS011;55596;53.554;9.916;2023-10-31T12:05:52;1.77;;;0.90;;
17796;SDS011;55596;53.554;9.916;2023-10-31T12:11:14;3.10;;;1.10;;
17796;SDS011;55596;53.554;9.916;2023-10-31T12:13:51;2.07;;;0.97;;
17796;SDS011;55596;53.554;9.916;2023-10-31T12:16:19;2.13;;;0.80;;
17796;SDS011;55596;53.554;9.916;2023-10-31T12:18:53;2.17;;;1.00;;
17796;SDS011;55596;53.554;9.916;2023-10-31T12:21:33;1.43;;;0.70;;
17796;SDS011;55596;53.554;9.916;2023-10-31T12:24:02;1.92;;;0.77;;
17796;SDS011;55596;53.554;9.916;2023-10-31T12:26:29;1.47;;;0.80;;
17796;SDS011;55596;53.554;9.916;2023-10-31T12:29:05;1.60;;;0.60;;
17796;SDS011;55596;53.554;9.916;2023-10-31T12:31:33;3.60;;;0.60;;
17796;SDS011;55596;53.554;9.916;2023-10-31T12:34:05;1.73;;;0.77;;
17796;SDS011;55596;53.554;9.916;2023-10-31T12:36:32;2.20;;;0.67;;
17796;SDS011;55596;53.554;9.916;2023-10-31T12:39:00;1.50;;;0.60;;
17796;SDS011;55596;53.554;9.916;2023-10-31T12:41:28;2.30;;;1.00;;
17796;SDS011;55596;53.554;9.916;2023-10-31T12:43:55;1.17;;;0.60;;
17796;SDS011;55596;53.554;9.916;2023-10-31T12:46:26;2.53;;;0.70;;
17796;SDS011;55596;53.554;9.916;2023-10-31T12:48:54;1.20;;;0.60;;
17796;SDS011;55596;53.554;9.916;2023-10-31T12:51:23;2.43;;;0.50;;
17796;SDS011;55596;53.554;9.916;2023-10-31T12:53:50;1.90;;;0.80;;
17796;SDS011;55596;53.554;9.916;2023-10-31T12:59:04;4.77;;;0.90;;
17796;SDS011;55596;53.554;9.916;2023-10-31T13:01:33;1.73;;;0.90;;
17796;SDS011;55596;53.554;9.916;2023-10-31T13:04:01;1.90;;;0.70;;
17796;SDS011;55596;53.554;9.916;2023-10-31T13:06:30;3.50;;;1.10;;
17796;SDS011;55596;53.554;9.916;2023-10-31T13:08:57;3.13;;;0.80;;
17796;SDS011;55596;53.554;9.916;2023-10-31T13:11:28;3.90;;;0.70;;
17796;SDS011;55596;53.554;9.916;2023-10-31T13:13:56;3.33;;;0.80;;
17796;SDS011;55596;53.554;9.916;2023-10-31T13:16:23;1.77;;;0.60;;
17796;SDS011;55596;53.554;9.916;2023-10-31T13:18:51;3.37;;;1.00;;
17796;SDS011;55596;53.554;9.916;2023-10-31T13:21:19;2.23;;;0.77;;
17796;SDS011;55596;53.554;9.916;2023-10-31T13:23:47;2.90;;;1.00;;
17796;SDS011;55596;53.554;9.916;2023-10-31T13:26:15;1.73;;;0.63;;
17796;SDS011;55596;53.554;9.916;2023-10-31T13:28:42;5.57;;;0.87;;
17796;SDS011;55596;53.554;9.916;2023-10-31T13:31:09;4.97;;;0.70;;
17796;SDS011;55596;53.554;9.916;2023-10-31T13:33:39;7.70;;;1.17;;
17796;SDS011;55596;53.554;9.916;2023-10-31T13:36:06;3.67;;;1.20;;
17796;SDS011;55596;53.554;9.916;2023-10-31T13:38:36;2.97;;;1.57;;
17796;SDS011;55596;53.554;9.916;2023-10-31T13:41:05;3.73;;;2.17;;
17796;SDS011;55596;53.554;9.916;2023-10-31T13:43:32;4.83;;;2.40;;
17796;SDS011;55596;53.554;9.916;2023-10-31T13:45:59;5.07;;;2.40;;
17796;SDS011;55596;53.554;9.916;2023-10-31T13:48:26;4.73;;;2.80;;
17796;SDS011;55596;53.554;9.916;2023-10-31T13:50:53;3.10;;;2.30;;
17796;SDS011;55596;53.554;9.916;2023-10-31T13:53:20;4.87;;;2.73;;
17796;SDS011;55596;53.554;9.916;2023-10-31T13:55:47;3.70;;;2.30;;
17796;SDS011;55596;53.554;9.916;2023-10-31T13:58:16;7.57;;;3.37;;
17796;SDS011;55596;53.554;9.916;2023-10-31T14:00:45;2.93;;;1.53;;
17796;SDS011;55596;53.554;9.916;2023-10-31T14:03:12;2.43;;;1.87;;
17796;SDS011;55596;53.554;9.916;2023-10-31T14:05:40;7.73;;;1.40;;
17796;SDS011;55596;53.554;9.916;2023-10-31T14:08:09;5.90;;;2.20;;
17796;SDS011;55596;53.554;9.916;2023-10-31T14:10:36;2.43;;;1.10;;
17796;SDS011;55596;53.554;9.916;2023-10-31T14:13:04;3.87;;;1.20;;
17796;SDS011;55596;53.554;9.916;2023-10-31T14:15:33;1.67;;;1.00;;
17796;SDS011;55596;53.554;9.916;2023-10-31T14:18:00;2.60;;;1.03;;
17796;SDS011;55596;53.554;9.916;2023-10-31T14:20:27;3.73;;;1.23;;
17796;SDS011;55596;53.554;9.916;2023-10-31T14:22:55;6.40;;;3.77;;
17796;SDS011;55596;53.554;9.916;2023-10-31T14:25:22;3.37;;;0.93;;
17796;SDS011;55596;53.554;9.916;2023-10-31T14:27:49;1.43;;;0.90;;
17796;SDS011;55596;53.554;9.916;2023-10-31T14:30:16;1.57;;;0.80;;
17796;SDS011;55596;53.554;9.916;2023-10-31T14:32:45;3.07;;;1.03;;
17796;SDS011;55596;53.554;9.916;2023-10-31T14:35:12;1.20;;;1.00;;
17796;SDS011;55596;53.554;9.916;2023-10-31T14:37:39;2.10;;;0.90;;
17796;SDS011;55596;53.554;9.916;2023-10-31T14:40:07;3.53;;;0.90;;
17796;SDS011;55596;53.554;9.916;2023-10-31T14:42:34;4.33;;;1.07;;